Time;durP1;ratioP1;P1;durP2;ratioP2;P2;SDS_P1;SDS_P2;PMS_P1;PMS_P2;Temp;Humidity;BMP_temperature;BMP_pressure;BME280_temperature;BME280_humidity;BME280_pressure;Samples;Min_cycle;Max_cycle;Signal;HPM_P1;HPM_P2
2022/07/18 00:01:47;;;;;;;5.32;2.15;;;17.00;99.90;;;;;;5066360;28;20231;-78
2022/07/18 00:04:37;;;;;;;8.25;2.50;;;16.90;99.90;;;;;;5064850;28;20777;-78
2022/07/18 00:07:25;;;;;;;5.15;2.22;;;16.90;99.90;;;;;;5049824;28;20231;-77
2022/07/18 00:10:14;;;;;;;4.47;2.17;;;16.80;99.90;;;;;;5050832;28;20216;-77
2022/07/18 00:13:03;;;;;;;3.53;2.25;;;16.70;99.90;;;;;;5050060;28;20220;-78
2022/07/18 00:15:53;;;;;;;4.93;2.20;;;16.70;99.90;;;;;;5077785;28;20228;-78
2022/07/18 00:18:42;;;;;;;4.63;2.08;;;16.70;99.90;;;;;;5066846;28;20220;-77
2022/07/18 00:21:31;;;;;;;7.28;2.60;;;16.70;99.90;;;;;;5046009;28;20216;-76
2022/07/18 00:24:19;;;;;;;10.05;2.42;;;16.60;99.90;;;;;;5062088;28;20404;-76
2022/07/18 00:27:08;;;;;;;4.25;2.03;;;16.60;99.90;;;;;;5065013;28;20571;-77
2022/07/18 00:29:57;;;;;;;5.05;2.22;;;16.50;99.90;;;;;;5060021;28;20328;-77
2022/07/18 00:32:47;;;;;;;5.97;2.55;;;16.60;99.90;;;;;;5058679;28;20320;-77
2022/07/18 00:35:36;;;;;;;6.05;2.70;;;16.60;99.90;;;;;;5065117;28;20649;-76
2022/07/18 00:38:25;;;;;;;3.00;2.30;;;16.50;99.90;;;;;;5066219;28;20224;-76
2022/07/18 00:41:16;;;;;;;5.88;2.67;;;16.50;99.90;;;;;;5066081;28;20216;-76
2022/07/18 00:44:05;;;;;;;6.10;2.75;;;16.40;99.90;;;;;;5049812;28;20220;-76
2022/07/18 00:46:54;;;;;;;2.78;2.15;;;16.40;99.90;;;;;;5047734;28;20228;-77
2022/07/18 00:49:45;;;;;;;13.80;3.05;;;16.30;99.90;;;;;;5077154;28;20270;-77
2022/07/18 00:52:34;;;;;;;3.78;2.38;;;16.20;99.90;;;;;;5049409;28;20236;-77
2022/07/18 00:55:23;;;;;;;6.28;2.63;;;16.20;99.90;;;;;;5058913;28;20219;-77
2022/07/18 00:58:13;;;;;;;6.20;2.63;;;16.20;99.90;;;;;;5063829;28;20603;-77
2022/07/18 01:04:07;;;;;;;6.68;2.60;;;16.20;99.90;;;;;;5062512;28;20220;-77
2022/07/18 01:06:58;;;;;;;4.32;2.53;;;16.10;99.90;;;;;;5053208;28;20230;-76
2022/07/18 01:09:47;;;;;;;5.80;2.75;;;16.10;99.90;;;;;;5044845;28;20242;-76
2022/07/18 01:12:35;;;;;;;4.45;2.58;;;16.10;99.90;;;;;;5047619;28;20227;-77
2022/07/18 01:15:24;;;;;;;5.15;2.78;;;15.90;99.90;;;;;;5063234;28;20223;-77
2022/07/18 01:18:12;;;;;;;5.03;2.78;;;15.90;99.90;;;;;;5050845;28;20216;-76
2022/07/18 01:21:03;;;;;;;6.30;2.72;;;16.00;99.90;;;;;;5060855;28;20315;-77
2022/07/18 01:23:52;;;;;;;9.65;3.20;;;16.00;99.90;;;;;;5063597;28;20216;-76
2022/07/18 01:26:41;;;;;;;7.30;2.50;;;15.90;99.90;;;;;;5049963;28;20239;-77
2022/07/18 01:29:30;;;;;;;6.60;3.03;;;15.80;99.90;;;;;;5047980;28;20227;-77
2022/07/18 01:32:19;;;;;;;9.43;2.80;;;15.90;99.90;;;;;;5075093;28;20583;-78
2022/07/18 01:35:09;;;;;;;7.82;3.35;;;15.80;99.90;;;;;;5079522;28;20212;-79
2022/07/18 01:38:01;;;;;;;7.55;2.72;;;15.90;99.90;;;;;;5052382;28;20249;-78
2022/07/18 01:40:50;;;;;;;5.05;2.58;;;16.00;99.90;;;;;;5055970;28;20870;-78
2022/07/18 01:43:44;;;;;;;5.22;2.80;;;16.00;99.90;;;;;;5049420;28;20274;-77
2022/07/18 01:46:33;;;;;;;4.40;2.75;;;15.90;99.90;;;;;;5066144;28;20212;-77
2022/07/18 01:49:23;;;;;;;4.82;3.10;;;16.00;99.90;;;;;;5062842;28;20287;-78
2022/07/18 01:52:12;;;;;;;5.07;3.00;;;15.90;99.90;;;;;;5067461;28;20718;-78
2022/07/18 01:55:03;;;;;;;6.13;2.58;;;15.90;99.90;;;;;;5073691;28;20663;-77
2022/07/18 01:57:52;;;;;;;7.72;2.90;;;15.90;99.90;;;;;;5074948;28;20227;-77
2022/07/18 02:00:41;;;;;;;7.93;3.45;;;15.90;99.90;;;;;;5051624;28;20228;-77
2022/07/18 02:03:30;;;;;;;3.97;2.72;;;15.90;99.90;;;;;;5048467;28;20540;-78
2022/07/18 02:06:18;;;;;;;5.22;3.25;;;15.80;99.90;;;;;;5065995;28;20250;-77
2022/07/18 02:09:08;;;;;;;6.30;3.03;;;15.80;99.90;;;;;;5052972;28;20316;-79
2022/07/18 02:11:58;;;;;;;4.53;3.10;;;15.80;99.90;;;;;;5067016;28;20682;-79
2022/07/18 02:14:46;;;;;;;6.32;3.00;;;15.80;99.90;;;;;;5067873;28;20231;-79
2022/07/18 02:17:35;;;;;;;3.72;2.97;;;15.70;99.90;;;;;;5076342;28;20468;-79
2022/07/18 02:20:24;;;;;;;4.18;2.90;;;15.60;99.90;;;;;;5048810;28;20219;-78
2022/07/18 02:23:13;;;;;;;8.88;3.13;;;15.60;99.90;;;;;;5052810;28;20213;-78
2022/07/18 02:26:01;;;;;;;4.90;2.88;;;15.60;99.90;;;;;;5066552;28;20247;-77
2022/07/18 02:28:51;;;;;;;7.97;2.90;;;15.70;99.90;;;;;;5091963;28;20220;-78
2022/07/18 02:31:40;;;;;;;4.82;3.25;;;15.70;99.90;;;;;;5057143;28;20646;-78
2022/07/18 02:34:28;;;;;;;7.05;3.08;;;15.70;99.90;;;;;;5076058;28;20231;-78
2022/07/18 02:37:17;;;;;;;4.70;2.90;;;15.60;99.90;;;;;;5074382;28;20228;-79
2022/07/18 02:40:08;;;;;;;5.45;3.33;;;15.60;99.90;;;;;;5071803;28;20235;-78
2022/07/18 02:42:56;;;;;;;6.32;3.22;;;15.70;99.90;;;;;;5067699;28;20232;-78
2022/07/18 02:45:46;;;;;;;8.15;3.33;;;15.60;99.90;;;;;;5081311;28;20224;-77
2022/07/18 02:48:35;;;;;;;8.23;3.60;;;15.60;99.90;;;;;;5079920;28;20204;-76
2022/07/18 02:51:24;;;;;;;8.73;3.40;;;15.50;99.90;;;;;;5096300;28;20213;-78
2022/07/18 02:54:12;;;;;;;8.82;3.40;;;15.50;99.90;;;;;;5090145;28;20227;-77
2022/07/18 02:57:04;;;;;;;5.70;3.13;;;15.50;99.90;;;;;;5093407;28;20237;-76
2022/07/18 02:59:52;;;;;;;5.75;3.08;;;15.40;99.90;;;;;;5077816;28;20231;-76
2022/07/18 03:02:43;;;;;;;5.70;3.50;;;15.40;99.90;;;;;;5069233;28;20219;-76
2022/07/18 03:05:31;;;;;;;10.10;3.25;;;15.50;99.90;;;;;;5081745;28;20224;-76
2022/07/18 03:08:20;;;;;;;5.20;3.30;;;15.50;99.90;;;;;;5068503;28;20216;-76
2022/07/18 03:11:08;;;;;;;4.95;2.97;;;15.50;99.90;;;;;;5054334;28;20212;-76
2022/07/18 03:13:57;;;;;;;6.57;3.13;;;15.50;99.90;;;;;;5049663;28;20232;-76
2022/07/18 03:16:47;;;;;;;6.70;3.92;;;15.50;99.90;;;;;;5069144;28;20607;-77
2022/07/18 03:19:37;;;;;;;5.28;3.40;;;15.40;99.90;;;;;;5068620;28;20767;-76
2022/07/18 03:22:26;;;;;;;7.28;3.28;;;15.50;99.90;;;;;;5079570;28;20221;-77
2022/07/18 03:25:15;;;;;;;10.40;3.70;;;15.60;99.90;;;;;;5067943;28;20555;-77
2022/07/18 03:28:04;;;;;;;8.25;3.53;;;15.50;99.90;;;;;;5052831;28;20220;-77
2022/07/18 03:30:52;;;;;;;5.32;3.22;;;15.50;99.90;;;;;;5066550;28;20693;-77
2022/07/18 03:33:41;;;;;;;5.72;3.38;;;15.60;99.90;;;;;;5065820;28;20224;-77
2022/07/18 03:36:31;;;;;;;9.40;3.80;;;15.60;99.90;;;;;;5067735;28;20321;-77
2022/07/18 03:39:20;;;;;;;6.47;3.42;;;15.60;99.90;;;;;;5066674;28;20216;-76
2022/07/18 03:42:09;;;;;;;5.97;3.40;;;15.60;99.90;;;;;;5066622;28;20223;-76
2022/07/18 03:44:57;;;;;;;11.70;3.83;;;15.60;99.90;;;;;;5066333;28;20231;-76
2022/07/18 03:47:46;;;;;;;6.40;3.58;;;15.70;99.90;;;;;;5062172;28;20231;-77
2022/07/18 03:50:34;;;;;;;8.77;3.60;;;15.80;99.90;;;;;;5066955;28;20227;-76
2022/07/18 03:53:24;;;;;;;5.75;3.50;;;16.00;99.90;;;;;;5066989;28;20223;-76
2022/07/18 03:56:13;;;;;;;7.47;3.38;;;15.80;99.90;;;;;;5076099;28;20299;-77
2022/07/18 03:59:01;;;;;;;8.18;3.60;;;16.00;99.90;;;;;;5063959;28;20235;-77
2022/07/18 04:01:50;;;;;;;5.63;3.47;;;16.00;99.90;;;;;;5050699;28;20220;-76
2022/07/18 04:04:39;;;;;;;5.78;3.28;;;16.20;99.90;;;;;;5066516;28;20220;-76
2022/07/18 04:07:28;;;;;;;5.57;4.00;;;16.20;99.90;;;;;;5066747;28;20216;-80
2022/07/18 04:10:18;;;;;;;7.15;3.95;;;16.20;99.90;;;;;;5067734;28;20224;-78
2022/07/18 04:13:08;;;;;;;5.80;2.97;;;16.20;99.90;;;;;;5057605;28;20219;-79
2022/07/18 04:15:57;;;;;;;8.85;4.00;;;16.20;99.90;;;;;;5069505;28;20222;-80
2022/07/18 04:18:46;;;;;;;8.00;2.97;;;16.20;99.90;;;;;;5066439;28;20228;-76
2022/07/18 04:21:34;;;;;;;5.50;3.15;;;16.30;99.90;;;;;;5065396;28;20721;-77
2022/07/18 04:24:23;;;;;;;6.97;3.60;;;16.20;99.90;;;;;;5078423;28;20670;-77
2022/07/18 04:27:14;;;;;;;4.18;3.13;;;16.20;99.90;;;;;;5063767;28;20225;-77
2022/07/18 04:30:03;;;;;;;3.92;2.97;;;16.20;99.90;;;;;;5074214;28;20224;-78
2022/07/18 04:32:52;;;;;;;6.63;3.03;;;16.40;99.90;;;;;;5062574;28;20231;-78
2022/07/18 04:35:41;;;;;;;6.20;3.20;;;16.40;99.90;;;;;;5063505;28;20405;-78
2022/07/18 04:38:34;;;;;;;6.57;4.03;;;16.40;99.90;;;;;;5090434;28;20224;-77
2022/07/18 04:41:24;;;;;;;5.65;3.15;;;16.50;99.90;;;;;;5080926;28;20297;-79
2022/07/18 04:44:15;;;;;;;7.57;3.88;;;16.60;99.90;;;;;;5067908;28;20224;-78
2022/07/18 04:47:03;;;;;;;8.00;3.30;;;16.60;99.90;;;;;;5061588;28;20227;-78
2022/07/18 04:49:52;;;;;;;6.18;3.70;;;16.60;99.90;;;;;;5065516;28;20235;-78
2022/07/18 04:52:43;;;;;;;6.72;3.13;;;16.70;99.90;;;;;;5050129;28;20293;-77
2022/07/18 04:55:31;;;;;;;5.60;3.10;;;16.80;99.90;;;;;;5051932;28;20220;-77
2022/07/18 04:58:20;;;;;;;3.88;2.70;;;16.90;99.90;;;;;;5081338;28;20224;-78
2022/07/18 05:01:10;;;;;;;6.60;2.90;;;17.00;99.90;;;;;;5062847;28;20212;-78
2022/07/18 05:04:00;;;;;;;8.63;2.70;;;17.20;99.90;;;;;;5061201;28;20354;-79
2022/07/18 05:06:49;;;;;;;4.35;2.50;;;17.20;99.90;;;;;;5062765;28;20231;-81
2022/07/18 05:09:37;;;;;;;4.68;2.70;;;17.40;99.90;;;;;;5062014;28;20231;-82
2022/07/18 05:12:26;;;;;;;4.25;3.05;;;17.40;99.90;;;;;;5050706;28;20216;-79
2022/07/18 05:15:17;;;;;;;7.18;3.05;;;17.50;99.90;;;;;;5068109;28;20227;-81
2022/07/18 05:18:07;;;;;;;5.70;2.88;;;17.70;99.90;;;;;;5066520;28;20255;-82
2022/07/18 05:20:56;;;;;;;4.03;2.50;;;17.80;99.90;;;;;;5058497;28;20216;-85
2022/07/18 05:23:46;;;;;;;7.18;3.05;;;18.00;99.90;;;;;;5081068;28;20564;-91
2022/07/18 05:26:36;;;;;;;7.53;2.40;;;18.00;99.90;;;;;;5054687;28;20220;-87
2022/07/18 05:29:25;;;;;;;7.07;2.65;;;18.10;99.90;;;;;;5056085;28;20224;-85
2022/07/18 05:32:14;;;;;;;5.88;2.63;;;18.10;99.90;;;;;;5054044;28;20602;-83
2022/07/18 05:35:10;;;;;;;5.72;2.42;;;18.20;99.90;;;;;;5050955;28;20342;-79
2022/07/18 05:37:59;;;;;;;4.72;2.47;;;18.50;99.90;;;;;;5058144;28;20220;-78
2022/07/18 05:40:47;;;;;;;4.38;2.40;;;18.60;99.90;;;;;;5060863;28;20223;-78
2022/07/18 05:43:36;;;;;;;7.03;3.30;;;18.40;99.90;;;;;;5065851;28;20212;-76
2022/07/18 05:46:26;;;;;;;7.10;2.83;;;18.40;99.90;;;;;;5062821;28;20227;-79
2022/07/18 05:49:16;;;;;;;51.65;5.60;;;18.50;99.90;;;;;;5062420;28;20224;-78
2022/07/18 05:52:08;;;;;;;12.05;2.40;;;18.60;99.90;;;;;;5068831;28;20314;-76
2022/07/18 05:54:56;;;;;;;38.28;5.13;;;18.60;99.90;;;;;;5047575;28;20207;-76
2022/07/18 05:57:45;;;;;;;5.75;2.20;;;18.80;99.90;;;;;;5064259;28;20216;-77
2022/07/18 06:00:34;;;;;;;21.48;3.28;;;18.90;99.90;;;;;;5075136;28;20829;-79
2022/07/18 06:03:23;;;;;;;8.18;2.47;;;18.90;99.90;;;;;;5062586;28;20709;-78
2022/07/18 06:06:11;;;;;;;8.52;2.28;;;19.00;99.90;;;;;;5065595;28;20231;-86
2022/07/18 06:09:02;;;;;;;8.25;2.15;;;19.20;99.90;;;;;;5060052;28;20230;-84
2022/07/18 06:11:52;;;;;;;5.78;2.17;;;19.40;99.90;;;;;;5063422;28;20220;-78
2022/07/18 06:14:41;;;;;;;6.10;1.88;;;19.60;99.90;;;;;;5067940;28;20223;-79
2022/07/18 06:17:29;;;;;;;10.88;4.55;;;19.70;99.90;;;;;;5068866;28;20554;-78
2022/07/18 06:20:19;;;;;;;9.35;3.95;;;19.60;99.90;;;;;;5065912;28;20231;-78
2022/07/18 06:23:07;;;;;;;5.40;2.25;;;19.60;99.90;;;;;;5065588;28;20221;-77
2022/07/18 06:25:57;;;;;;;6.30;2.53;;;19.60;99.90;;;;;;5053022;28;20685;-80
2022/07/18 06:28:46;;;;;;;8.02;2.83;;;19.60;99.90;;;;;;5050576;28;20220;-78
2022/07/18 06:31:35;;;;;;;3.90;1.95;;;19.80;99.90;;;;;;5065979;28;20216;-81
2022/07/18 06:34:24;;;;;;;11.27;2.22;;;19.80;99.90;;;;;;5068166;28;20228;-85
2022/07/18 06:37:13;;;;;;;9.10;2.30;;;19.80;99.90;;;;;;5053002;28;20321;-80
2022/07/18 06:40:02;;;;;;;13.13;3.05;;;20.00;99.90;;;;;;5050731;28;20676;-78
2022/07/18 06:42:53;;;;;;;5.32;2.10;;;19.90;99.90;;;;;;5070516;28;20293;-85
2022/07/18 06:45:42;;;;;;;5.30;2.35;;;20.00;99.90;;;;;;5066459;28;20566;-78
2022/07/18 06:48:33;;;;;;;4.25;1.73;;;19.90;99.90;;;;;;5064523;28;20227;-77
2022/07/18 06:51:22;;;;;;;6.78;1.80;;;19.90;99.90;;;;;;5052499;28;20216;-78
2022/07/18 06:54:10;;;;;;;4.65;2.00;;;19.80;99.90;;;;;;5055284;28;20224;-79
2022/07/18 06:56:59;;;;;;;6.38;2.55;;;19.90;99.90;;;;;;5068386;28;20253;-78
2022/07/18 06:59:50;;;;;;;7.03;2.17;;;20.10;99.90;;;;;;5068029;28;20228;-88
2022/07/18 07:02:47;;;;;;;5.75;2.13;;;20.10;99.90;;;;;;5079222;28;20317;-82
2022/07/18 07:05:36;;;;;;;7.90;2.10;;;20.00;99.90;;;;;;5065820;28;20228;-81
2022/07/18 07:08:25;;;;;;;8.73;2.38;;;20.10;99.90;;;;;;5078562;28;20273;-81
2022/07/18 07:11:14;;;;;;;8.00;2.38;;;20.10;99.90;;;;;;5054772;28;20590;-81
2022/07/18 07:14:03;;;;;;;5.35;2.03;;;20.20;99.90;;;;;;5050949;28;20622;-83
2022/07/18 07:16:53;;;;;;;3.22;2.15;;;20.40;99.90;;;;;;5070302;28;20216;-80
2022/07/18 07:19:41;;;;;;;7.43;2.45;;;20.60;99.90;;;;;;5066423;28;20643;-79
2022/07/18 07:22:30;;;;;;;5.63;2.42;;;21.00;99.90;;;;;;5059768;28;20726;-78
2022/07/18 07:25:20;;;;;;;4.72;2.35;;;21.30;99.90;;;;;;5064881;28;20235;-79
2022/07/18 07:28:09;;;;;;;5.07;2.80;;;21.10;99.90;;;;;;5065691;28;20228;-79
2022/07/18 07:30:58;;;;;;;7.18;2.90;;;20.80;99.90;;;;;;5048030;28;20224;-80
2022/07/18 07:33:48;;;;;;;8.32;2.90;;;20.90;99.90;;;;;;5049424;28;20220;-77
2022/07/18 07:36:37;;;;;;;10.75;3.20;;;21.00;99.90;;;;;;5064151;28;20221;-78
2022/07/18 07:39:25;;;;;;;6.55;3.05;;;21.20;99.90;;;;;;5045878;28;20224;-78
2022/07/18 07:42:14;;;;;;;7.90;3.17;;;21.30;99.90;;;;;;5065330;28;20242;-77
2022/07/18 07:45:03;;;;;;;8.57;3.60;;;21.70;99.90;;;;;;5068514;28;20722;-77
2022/07/18 07:47:52;;;;;;;6.63;3.60;;;21.60;99.90;;;;;;5088213;28;20620;-78
2022/07/18 07:50:42;;;;;;;8.95;3.30;;;21.70;99.90;;;;;;5070212;28;20227;-80
2022/07/18 07:53:31;;;;;;;8.02;3.03;;;22.10;99.90;;;;;;5040488;28;20771;-78
2022/07/18 07:56:20;;;;;;;6.57;3.03;;;22.90;99.90;;;;;;5046897;28;20536;-79
2022/07/18 07:59:08;;;;;;;5.82;3.17;;;23.00;99.90;;;;;;5050420;28;20687;-79
2022/07/18 08:01:57;;;;;;;4.25;2.40;;;23.30;99.90;;;;;;5047773;28;20220;-81
2022/07/18 08:04:46;;;;;;;6.47;2.97;;;23.20;99.90;;;;;;5028823;28;20225;-79
2022/07/18 08:07:36;;;;;;;6.68;3.13;;;23.70;99.90;;;;;;5042628;28;20235;-78
2022/07/18 08:10:25;;;;;;;5.32;2.40;;;23.80;99.90;;;;;;5042415;28;20227;-80
2022/07/18 08:13:15;;;;;;;4.95;1.90;;;24.40;99.90;;;;;;5032487;28;20232;-79
2022/07/18 08:16:03;;;;;;;5.15;2.03;;;24.90;99.90;;;;;;5043419;28;20225;-79
2022/07/18 08:18:52;;;;;;;5.00;2.25;;;25.10;97.70;;;;;;5029123;28;20220;-79
2022/07/18 08:21:41;;;;;;;6.32;2.10;;;25.10;96.50;;;;;;5041754;28;20217;-79
2022/07/18 08:24:31;;;;;;;4.93;2.10;;;24.80;97.70;;;;;;5039895;28;20651;-78
2022/07/18 08:27:20;;;;;;;4.28;1.85;;;24.60;97.30;;;;;;5040852;28;20231;-79
2022/07/18 08:30:09;;;;;;;3.50;1.95;;;24.40;98.40;;;;;;5041782;28;20710;-81
2022/07/18 08:33:00;;;;;;;7.13;2.50;;;24.30;99.90;;;;;;5041714;28;20233;-81
2022/07/18 08:35:49;;;;;;;3.70;2.22;;;24.20;98.80;;;;;;5043827;28;20300;-81
2022/07/18 08:38:38;;;;;;;4.75;2.20;;;24.40;97.90;;;;;;5043248;28;20236;-83
2022/07/18 08:41:29;;;;;;;5.90;2.53;;;24.50;98.30;;;;;;5055171;28;20221;-80
2022/07/18 08:44:18;;;;;;;8.13;1.92;;;24.50;96.60;;;;;;5027158;28;20278;-80
2022/07/18 08:47:09;;;;;;;4.00;2.15;;;24.70;98.40;;;;;;5040961;28;20777;-80
2022/07/18 08:49:58;;;;;;;22.63;3.42;;;24.90;98.00;;;;;;5039867;28;21966;-79
2022/07/18 08:52:47;;;;;;;82.80;7.80;;;24.60;96.30;;;;;;5038317;28;20228;-81
2022/07/18 08:55:41;;;;;;;6.80;2.10;;;24.50;97.20;;;;;;5061573;28;20295;-82
2022/07/18 08:58:32;;;;;;;9.80;2.30;;;24.60;97.40;;;;;;5052353;28;20396;-80
2022/07/18 09:01:37;;;;;;;4.25;1.83;;;24.50;97.00;;;;;;5052284;28;20243;-83
2022/07/18 09:04:37;;;;;;;8.30;2.00;;;24.50;97.60;;;;;;5048931;28;20254;-81
2022/07/18 09:07:29;;;;;;;3.55;1.95;;;24.90;96.60;;;;;;5045592;28;20290;-80
2022/07/18 09:10:17;;;;;;;7.05;2.00;;;25.80;95.30;;;;;;5074363;28;20216;-81
2022/07/18 09:13:06;;;;;;;3.78;2.20;;;26.60;92.40;;;;;;5059240;28;20366;-80
2022/07/18 09:16:01;;;;;;;4.78;2.13;;;26.80;90.90;;;;;;5048639;28;20216;-81
2022/07/18 09:18:50;;;;;;;5.07;1.90;;;27.90;90.80;;;;;;5060316;28;20224;-82
2022/07/18 09:21:39;;;;;;;7.05;2.00;;;28.90;84.80;;;;;;5047810;28;20804;-80
2022/07/18 09:24:28;;;;;;;5.22;2.00;;;30.30;82.20;;;;;;5067197;28;20215;-81
2022/07/18 09:27:25;;;;;;;5.05;2.17;;;30.60;71.80;;;;;;5058164;28;20216;-81
2022/07/18 09:30:24;;;;;;;6.93;2.08;;;31.60;72.00;;;;;;5058256;28;20681;-81
2022/07/18 09:33:15;;;;;;;8.07;2.47;;;32.50;68.60;;;;;;5055898;28;20288;-82
2022/07/18 09:36:04;;;;;;;4.05;2.13;;;32.80;63.70;;;;;;5055898;28;20219;-82
2022/07/18 09:38:53;;;;;;;2.92;1.65;;;31.40;65.70;;;;;;5063821;28;20219;-82
2022/07/18 09:41:41;;;;;;;7.40;2.00;;;29.90;68.70;;;;;;5043550;28;20216;-83
2022/07/18 09:44:31;;;;;;;8.60;1.83;;;30.70;69.40;;;;;;5050992;28;20216;-83
2022/07/18 09:47:19;;;;;;;5.20;2.00;;;30.60;64.00;;;;;;5062464;28;20614;-83
2022/07/18 09:50:22;;;;;;;3.53;1.58;;;29.90;67.10;;;;;;5058270;28;20242;-81
2022/07/18 09:53:14;;;;;;;4.05;2.10;;;31.40;64.40;;;;;;5058235;28;20247;-81
2022/07/18 09:56:24;;;;;;;2.33;1.60;;;33.00;60.20;;;;;;5070588;28;20219;-79
2022/07/18 09:59:13;;;;;;;5.20;2.03;;;33.80;60.00;;;;;;5062419;28;20215;-79
2022/07/18 10:02:03;;;;;;;2.05;1.63;;;35.00;57.90;;;;;;5060612;28;20223;-80
2022/07/18 10:04:52;;;;;;;6.85;1.80;;;36.00;55.50;;;;;;5061068;28;20865;-80
2022/07/18 10:07:42;;;;;;;5.40;1.60;;;36.90;52.70;;;;;;5041794;28;20223;-80
2022/07/18 10:10:32;;;;;;;6.15;1.73;;;36.90;52.90;;;;;;5061309;28;20223;-80
2022/07/18 10:13:22;;;;;;;5.38;2.30;;;35.10;54.00;;;;;;5064705;28;20222;-80
2022/07/18 10:16:11;;;;;;;5.97;1.80;;;35.10;53.60;;;;;;5049384;28;20231;-80
2022/07/18 10:19:00;;;;;;;3.88;1.70;;;35.30;52.70;;;;;;5076460;28;20228;-80
2022/07/18 10:21:50;;;;;;;5.32;2.15;;;32.60;56.50;;;;;;5082308;28;20227;-82
2022/07/18 10:24:42;;;;;;;2.67;1.65;;;31.30;58.70;;;;;;5079979;28;20223;-81
2022/07/18 10:27:49;;;;;;;2.35;1.60;;;30.40;62.00;;;;;;5080479;28;20265;-81
2022/07/18 10:30:45;;;;;;;4.68;1.90;;;30.60;62.70;;;;;;5042089;28;20234;-83
2022/07/18 10:33:39;;;;;;;2.50;1.75;;;31.70;62.00;;;;;;5059748;28;20219;-83
2022/07/18 10:36:28;;;;;;;1.60;1.50;;;31.90;60.00;;;;;;5055511;28;20223;-83
2022/07/18 10:39:20;;;;;;;4.30;2.03;;;34.40;59.50;;;;;;5091773;28;20230;-84
2022/07/18 10:42:31;;;;;;;4.03;1.67;;;35.00;55.30;;;;;;5076551;28;20314;-84
2022/07/18 10:45:43;;;;;;;3.35;1.70;;;34.00;55.20;;;;;;5086032;28;20223;-83
2022/07/18 10:48:51;;;;;;;32.50;17.17;;;31.60;58.70;;;;;;5063137;28;20299;-80
2022/07/18 10:51:39;;;;;;;4.57;2.25;;;32.70;57.50;;;;;;5066878;28;20230;-79
2022/07/18 10:54:28;;;;;;;7.03;1.92;;;34.10;56.90;;;;;;5041631;28;20220;-80
2022/07/18 10:57:16;;;;;;;2.30;1.30;;;35.20;55.50;;;;;;5049211;28;20287;-80
2022/07/18 11:00:09;;;;;;;2.45;1.90;;;34.40;54.20;;;;;;5049281;28;20224;-81
2022/07/18 11:03:05;;;;;;;5.88;1.67;;;34.90;53.30;;;;;;5049448;28;20704;-82
2022/07/18 11:05:55;;;;;;;8.90;2.22;;;34.40;57.30;;;;;;5035082;28;20227;-81
2022/07/18 11:08:46;;;;;;;1.75;1.30;;;36.50;52.90;;;;;;5032924;28;20220;-81
2022/07/18 11:11:35;;;;;;;5.05;1.70;;;37.80;50.70;;;;;;5048491;28;20234;-81
2022/07/18 11:14:57;;;;;;;2.28;1.30;;;36.40;49.80;;;;;;5047085;28;20591;-80
2022/07/18 11:18:03;;;;;;;2.95;1.85;;;33.60;54.20;;;;;;5050365;28;20243;-84
2022/07/18 11:20:53;;;;;;;3.55;1.50;;;31.40;56.90;;;;;;5056707;28;20227;-83
2022/07/18 11:23:46;;;;;;;7.30;1.50;;;31.60;58.70;;;;;;5067129;28;20694;-83
2022/07/18 11:26:42;;;;;;;11.25;2.33;;;31.70;59.10;;;;;;5034881;28;20216;-79
2022/07/18 11:29:41;;;;;;;15.73;2.65;;;31.30;58.80;;;;;;5029667;28;20362;-83
2022/07/18 11:32:30;;;;;;;7.63;2.10;;;29.70;61.20;;;;;;5054789;28;20257;-80
2022/07/18 11:35:25;;;;;;;12.05;2.30;;;29.30;64.50;;;;;;5042140;28;20263;-81
2022/07/18 11:38:13;;;;;;;6.75;1.88;;;28.60;66.00;;;;;;5032610;28;20213;-81
2022/07/18 11:41:04;;;;;;;4.07;1.77;;;28.00;67.70;;;;;;5049459;28;20578;-81
2022/07/18 11:43:55;;;;;;;4.22;2.13;;;27.70;68.50;;;;;;5034581;28;20222;-81
2022/07/18 11:46:44;;;;;;;3.17;1.90;;;27.40;70.80;;;;;;5058534;28;20312;-81
2022/07/18 11:49:34;;;;;;;5.65;2.45;;;27.40;70.70;;;;;;5045479;28;20219;-83
2022/07/18 11:52:24;;;;;;;5.72;1.88;;;27.10;72.30;;;;;;5034511;28;20228;-83
2022/07/18 11:55:19;;;;;;;3.30;2.30;;;26.80;71.60;;;;;;5053204;28;20716;-81
2022/07/18 11:58:08;;;;;;;4.20;1.77;;;26.80;71.60;;;;;;5050224;28;20221;-83
2022/07/18 12:01:00;;;;;;;3.90;2.42;;;27.50;72.10;;;;;;5063257;28;20298;-80
2022/07/18 12:03:50;;;;;;;2.53;1.98;;;30.00;66.90;;;;;;5066079;28;20239;-81
2022/07/18 12:06:39;;;;;;;4.18;1.83;;;30.50;64.60;;;;;;5066362;28;20224;-85
2022/07/18 12:09:29;;;;;;;3.92;1.95;;;32.50;61.50;;;;;;5055896;28;20235;-82
2022/07/18 12:12:20;;;;;;;7.18;1.90;;;34.90;56.40;;;;;;5068797;28;20337;-81
2022/07/18 12:15:10;;;;;;;2.70;1.50;;;36.50;53.80;;;;;;5056743;28;20219;-84
2022/07/18 12:17:59;;;;;;;12.73;2.00;;;36.50;51.70;;;;;;5070469;28;20248;-85
2022/07/18 12:21:07;;;;;;;5.57;1.70;;;36.30;51.60;;;;;;5080304;28;20291;-85
2022/07/18 12:23:56;;;;;;;10.27;2.05;;;34.70;53.10;;;;;;5089811;28;20762;-84
2022/07/18 12:26:46;;;;;;;4.20;2.13;;;35.40;52.40;;;;;;5069596;28;20234;-84
2022/07/18 12:30:02;;;;;;;13.05;3.00;;;35.10;53.40;;;;;;5060716;28;20219;-80
2022/07/18 12:32:52;;;;;;;15.38;3.72;;;35.00;52.80;;;;;;5055145;28;20393;-80
2022/07/18 12:35:42;;;;;;;10.95;2.00;;;34.40;53.50;;;;;;5070069;28;20319;-83
2022/07/18 12:38:32;;;;;;;5.45;1.60;;;33.70;54.40;;;;;;5074593;28;20223;-83
2022/07/18 12:41:29;;;;;;;4.38;1.98;;;33.20;54.60;;;;;;5070063;28;20566;-82
2022/07/18 12:44:19;;;;;;;8.00;2.25;;;32.10;57.90;;;;;;5063815;28;20235;-83
2022/07/18 12:47:09;;;;;;;5.70;1.70;;;31.00;58.70;;;;;;5054623;28;20597;-83
2022/07/18 12:50:00;;;;;;;4.22;3.30;;;30.00;60.70;;;;;;5053964;28;20234;-84
2022/07/18 12:52:49;;;;;;;4.07;2.03;;;29.20;63.70;;;;;;5066381;28;20220;-83
2022/07/18 12:55:39;;;;;;;6.22;1.85;;;29.10;63.30;;;;;;5060873;28;20246;-81
2022/07/18 12:58:28;;;;;;;6.30;1.90;;;28.90;65.30;;;;;;5065574;28;20224;-82
2022/07/18 13:01:20;;;;;;;2.85;1.83;;;28.80;64.00;;;;;;5047400;28;20219;-80
2022/07/18 13:04:09;;;;;;;3.28;1.80;;;28.70;66.20;;;;;;5049856;28;20223;-83
2022/07/18 13:06:58;;;;;;;13.48;2.88;;;28.50;65.80;;;;;;5063578;28;20235;-84
2022/07/18 13:09:46;;;;;;;5.50;2.10;;;28.30;66.60;;;;;;5061902;28;20223;-83
2022/07/18 13:12:35;;;;;;;7.47;2.22;;;28.10;68.30;;;;;;5046115;28;20223;-82
2022/07/18 13:15:24;;;;;;;2.10;1.63;;;27.60;67.60;;;;;;5061932;28;20318;-82
2022/07/18 13:18:14;;;;;;;5.97;2.20;;;27.30;69.20;;;;;;5066625;28;20220;-80
2022/07/18 13:21:03;;;;;;;4.35;1.70;;;27.10;70.80;;;;;;5050469;28;20305;-90
2022/07/18 13:23:52;;;;;;;5.53;2.30;;;26.80;70.30;;;;;;5050437;28;20235;-86
2022/07/18 13:26:41;;;;;;;11.32;3.72;;;27.00;71.10;;;;;;5068494;28;20225;-86
2022/07/18 13:29:30;;;;;;;13.15;3.05;;;27.00;71.20;;;;;;5050979;28;20301;-84
2022/07/18 13:32:19;;;;;;;6.28;2.30;;;27.00;71.80;;;;;;5065907;28;20250;-80
2022/07/18 13:35:10;;;;;;;6.38;2.00;;;27.00;70.80;;;;;;5063873;28;20221;-80
2022/07/18 13:37:58;;;;;;;20.17;3.28;;;26.80;70.90;;;;;;5052175;28;20377;-82
2022/07/18 13:40:47;;;;;;;10.18;2.92;;;26.80;71.30;;;;;;5064905;28;20307;-80
2022/07/18 13:43:39;;;;;;;7.13;1.80;;;26.80;72.40;;;;;;5048792;28;20220;-80
2022/07/18 13:46:27;;;;;;;2.60;1.63;;;26.50;71.30;;;;;;5063869;28;20231;-80
2022/07/18 13:49:16;;;;;;;5.40;2.03;;;26.40;72.30;;;;;;5056081;28;20223;-80
2022/07/18 13:52:07;;;;;;;4.25;1.52;;;26.40;72.10;;;;;;5077350;28;20250;-79
2022/07/18 13:54:58;;;;;;;4.82;1.58;;;26.20;73.00;;;;;;5063242;28;20224;-78
2022/07/18 13:57:46;;;;;;;6.35;2.28;;;26.30;72.90;;;;;;5059488;28;20216;-80
2022/07/18 14:00:35;;;;;;;12.55;3.30;;;26.40;73.00;;;;;;5047988;28;20219;-80
2022/07/18 14:03:24;;;;;;;14.02;2.15;;;26.20;71.80;;;;;;5063999;28;20224;-81
2022/07/18 14:06:13;;;;;;;6.07;2.00;;;26.30;73.60;;;;;;5063320;28;20262;-80
2022/07/18 14:09:03;;;;;;;7.50;1.65;;;26.20;72.50;;;;;;5060505;28;20253;-80
2022/07/18 14:11:52;;;;;;;10.13;2.17;;;26.00;71.60;;;;;;5066111;28;20212;-80
2022/07/18 14:14:41;;;;;;;3.58;1.70;;;26.00;72.70;;;;;;5061629;28;20690;-79
2022/07/18 14:17:30;;;;;;;7.95;2.00;;;25.90;71.60;;;;;;5063254;28;20711;-80
2022/07/18 14:20:20;;;;;;;5.60;1.70;;;25.70;71.80;;;;;;5063469;28;20234;-84
2022/07/18 14:23:09;;;;;;;22.40;3.08;;;25.70;72.10;;;;;;5063733;28;20255;-82
2022/07/18 14:25:59;;;;;;;44.10;5.28;;;25.50;71.10;;;;;;5080290;28;20220;-82
2022/07/18 14:28:48;;;;;;;23.98;3.50;;;25.60;70.80;;;;;;5067735;28;20742;-79
2022/07/18 14:31:36;;;;;;;15.57;2.90;;;25.60;72.70;;;;;;5052322;28;20224;-78
2022/07/18 14:34:25;;;;;;;8.10;1.85;;;25.50;72.40;;;;;;5050879;28;20309;-79
2022/07/18 14:37:14;;;;;;;35.47;21.65;;;25.50;71.80;;;;;;5045921;28;20226;-79
2022/07/18 14:40:05;;;;;;;2.58;2.20;;;25.50;72.80;;;;;;5049299;28;20943;-79
2022/07/18 14:42:55;;;;;;;4.22;2.00;;;25.40;72.90;;;;;;5064998;28;20357;-80
2022/07/18 14:45:45;;;;;;;5.20;2.10;;;25.30;72.10;;;;;;5065459;28;20601;-79
2022/07/18 14:48:51;;;;;;;2.45;1.80;;;25.30;73.80;;;;;;5082964;28;20224;-79